Map

Track Data

SID SEASON NUMBER BASIN SUBBASIN NAME ISO_TIME NATURE LAT LON WMO_WIND WMO_PRES WMO_AGENCY TRACK_TYPE DIST2LAND LANDFALL IFLAG USA_AGENCY USA_ATCF_ID USA_LAT USA_LON USA_RECORD USA_STATUS USA_WIND USA_PRES USA_SSHS USA_R34_NE USA_R34_SE USA_R34_SW USA_R34_NW USA_R50_NE USA_R50_SE USA_R50_SW USA_R50_NW USA_R64_NE USA_R64_SE USA_R64_SW USA_R64_NW USA_POCI USA_ROCI USA_RMW USA_EYE TOKYO_LAT TOKYO_LON TOKYO_GRADE TOKYO_WIND TOKYO_PRES TOKYO_R50_DIR TOKYO_R50_LONG TOKYO_R50_SHORT TOKYO_R30_DIR TOKYO_R30_LONG TOKYO_R30_SHORT TOKYO_LAND CMA_LAT CMA_LON CMA_CAT CMA_WIND CMA_PRES HKO_LAT HKO_LON HKO_CAT HKO_WIND HKO_PRES NEWDELHI_LAT NEWDELHI_LON NEWDELHI_GRADE NEWDELHI_WIND NEWDELHI_PRES NEWDELHI_CI NEWDELHI_DP NEWDELHI_POCI REUNION_LAT REUNION_LON REUNION_TYPE REUNION_WIND REUNION_PRES REUNION_TNUM REUNION_CI REUNION_RMW REUNION_R34_NE REUNION_R34_SE REUNION_R34_SW REUNION_R34_NW REUNION_R50_NE REUNION_R50_SE REUNION_R50_SW REUNION_R50_NW REUNION_R64_NE REUNION_R64_SE REUNION_R64_SW REUNION_R64_NW BOM_LAT BOM_LON BOM_TYPE BOM_WIND BOM_PRES BOM_TNUM BOM_CI BOM_RMW BOM_R34_NE BOM_R34_SE BOM_R34_SW BOM_R34_NW BOM_R50_NE BOM_R50_SE BOM_R50_SW BOM_R50_NW BOM_R64_NE BOM_R64_SE BOM_R64_SW BOM_R64_NW BOM_ROCI BOM_POCI BOM_EYE BOM_POS_METHOD BOM_PRES_METHOD NADI_LAT NADI_LON NADI_CAT NADI_WIND NADI_PRES WELLINGTON_LAT WELLINGTON_LON WELLINGTON_WIND WELLINGTON_PRES DS824_LAT DS824_LON DS824_STAGE DS824_WIND DS824_PRES TD9636_LAT TD9636_LON TD9636_STAGE TD9636_WIND TD9636_PRES TD9635_LAT TD9635_LON TD9635_WIND TD9635_PRES TD9635_ROCI NEUMANN_LAT NEUMANN_LON NEUMANN_CLASS NEUMANN_WIND NEUMANN_PRES MLC_LAT MLC_LON MLC_CLASS MLC_WIND MLC_PRES USA_GUST BOM_GUST BOM_GUST_PER REUNION_GUST REUNION_GUST_PER USA_SEAHGT USA_SEARAD_NE USA_SEARAD_SE USA_SEARAD_SW USA_SEARAD_NW STORM_SPEED STORM_DIR
1893274N10148 1893 54 WP MM NOT_NAMED 1893-09-30 16:00:00 NR 9.50000 147.500 main 1299 1299 __________O___ -1 9.50000 147.500 4 57 306
1893274N10148 1893 54 WP MM NOT_NAMED 1893-09-30 18:00:00 NR 10.6256 145.945 main 1425 1436 __________P___ -1 10.6256 145.945 4 56 306
1893274N10148 1893 54 WP MM NOT_NAMED 1893-09-30 21:00:00 NR 12.2380 143.690 main 1633 1647 __________P___ -1 12.2380 143.690 4 52 306
1893274N10148 1893 54 WP MM NOT_NAMED 1893-10-01 00:00:00 NR 13.6626 141.683 main 1745 1605 __________P___ -1 13.6626 141.683 4 43 306
1893274N10148 1893 54 WP MM NOT_NAMED 1893-10-01 03:00:00 NR 14.8002 140.102 main 1605 1577 __________P___ -1 14.8002 140.102 4 36 307
1893274N10148 1893 54 WP MM NOT_NAMED 1893-10-01 04:00:00 NR 15.1000 139.700 main 1568 1514 __________O___ -1 15.1000 139.700 4 25 309
1893274N10148 1893 54 WP MM NOT_NAMED 1893-10-01 06:00:00 NR 15.5722 139.104 main 1516 1475 __________P___ -1 15.5722 139.104 4 17 312
1893274N10148 1893 54 WP MM NOT_NAMED 1893-10-01 09:00:00 NR 16.0305 138.627 main 1475 1468 __________P___ -1 16.0305 138.627 4 10 320
1893274N10148 1893 54 WP MM NOT_NAMED 1893-10-01 12:00:00 NR 16.3042 138.470 main 1474 1467 __________P___ -1 16.3042 138.470 4 5 338
1893274N10148 1893 54 WP MM NOT_NAMED 1893-10-01 15:00:00 NR 16.5196 138.426 main 1470 1470 __________P___ -1 16.5196 138.426 4 5 347
1893274N10148 1893 54 WP MM NOT_NAMED 1893-10-01 16:00:00 NR 16.6000 138.400 main 1474 1460 __________O___ -1 16.6000 138.400 4 8 327
1893274N10148 1893 54 WP MM NOT_NAMED 1893-10-01 18:00:00 NR 16.8660 138.188 main 1464 1446 __________P___ -1 16.8660 138.188 4 10 323
1893274N10148 1893 54 WP MM NOT_NAMED 1893-10-01 21:00:00 NR 17.2716 137.871 main 1450 1428 __________P___ -1 17.2716 137.871 4 10 323
1893274N10148 1893 54 WP MM NOT_NAMED 1893-10-02 00:00:00 NR 17.6767 137.549 main 1428 1418 __________P___ -1 17.6767 137.549 4 10 322
1893274N10148 1893 54 WP MM NOT_NAMED 1893-10-02 03:00:00 NR 18.0720 137.215 main 1418 1414 __________P___ -1 18.0720 137.215 4 10 321
1893274N10148 1893 54 WP MM NOT_NAMED 1893-10-02 04:00:00 NR 18.2000 137.100 main 1414 1405 __________O___ -1 18.2000 137.100 4 10 319
1893274N10148 1893 54 WP MM NOT_NAMED 1893-10-02 06:00:00 NR 18.4498 136.869 main 1405 1390 __________P___ -1 18.4498 136.869 4 10 318
1893274N10148 1893 54 WP MM NOT_NAMED 1893-10-02 09:00:00 NR 18.8121 136.510 main 1390 1378 __________P___ -1 18.8121 136.510 4 10 316
1893274N10148 1893 54 WP MM NOT_NAMED 1893-10-02 12:00:00 NR 19.1596 136.134 main 1378 1356 __________P___ -1 19.1596 136.134 4 10 313
1893274N10148 1893 54 WP MM NOT_NAMED 1893-10-02 15:00:00 NR 19.4923 135.737 main 1356 1352 __________P___ -1 19.4923 135.737 4 10 311
1893274N10148 1893 54 WP MM NOT_NAMED 1893-10-02 16:00:00 NR 19.6000 135.600 main 1352 1333 __________O___ -1 19.6000 135.600 4 10 310
1893274N10148 1893 54 WP MM NOT_NAMED 1893-10-02 18:00:00 NR 19.8190 135.330 main 1333 1288 __________P___ -1 19.8190 135.330 4 10 309
1893274N10148 1893 54 WP MM NOT_NAMED 1893-10-02 21:00:00 NR 20.1351 134.906 main 1288 1243 __________P___ -1 20.1351 134.906 4 10 307
1893274N10148 1893 54 WP MM NOT_NAMED 1893-10-03 00:00:00 NR 20.4338 134.455 main 1243 1196 __________P___ -1 20.4338 134.455 4 11 303
1893274N10148 1893 54 WP MM NOT_NAMED 1893-10-03 03:00:00 NR 20.7122 133.970 main 1196 1180 __________P___ -1 20.7122 133.970 4 11 301
1893274N10148 1893 54 WP MM NOT_NAMED 1893-10-03 04:00:00 NR 20.8000 133.800 main 1180 1148 __________O___ -1 20.8000 133.800 4 11 298
1893274N10148 1893 54 WP MM NOT_NAMED 1893-10-03 06:00:00 NR 20.9723 133.445 main 1148 1116 __________P___ -1 20.9723 133.445 4 11 296
1893274N10148 1893 54 WP MM NOT_NAMED 1893-10-03 09:00:00 NR 21.2121 132.881 main 1116 1084 __________P___ -1 21.2121 132.881 4 12 293
1893274N10148 1893 54 WP MM NOT_NAMED 1893-10-03 12:00:00 NR 21.4320 132.293 main 1084 1045 __________P___ -1 21.4320 132.293 4 12 291
1893274N10148 1893 54 WP MM NOT_NAMED 1893-10-03 15:00:00 NR 21.6353 131.698 main 1045 1029 __________P___ -1 21.6353 131.698 4 12 290
1893274N10148 1893 54 WP MM NOT_NAMED 1893-10-03 16:00:00 NR 21.7000 131.500 main 1029 987 __________O___ -1 21.7000 131.500 4 12 291
1893274N10148 1893 54 WP MM NOT_NAMED 1893-10-03 18:00:00 NR 21.8464 131.101 main 987 917 __________P___ -1 21.8464 131.101 4 12 291
1893274N10148 1893 54 WP MM NOT_NAMED 1893-10-03 21:00:00 NR 22.0539 130.502 main 917 855 __________P___ -1 22.0539 130.502 4 12 289
1893274N10148 1893 54 WP MM NOT_NAMED 1893-10-04 00:00:00 NR 22.2329 129.920 main 855 799 __________P___ -1 22.2329 129.920 4 11 287
1893274N10148 1893 54 WP MM NOT_NAMED 1893-10-04 03:00:00 NR 22.3676 129.372 main 799 780 __________P___ -1 22.3676 129.372 4 10 284
1893274N10148 1893 54 WP MM NOT_NAMED 1893-10-04 04:00:00 NR 22.4000 129.200 main 780 751 __________O___ -1 22.4000 129.200 4 9 279
1893274N10148 1893 54 WP MM NOT_NAMED 1893-10-04 06:00:00 NR 22.4392 128.882 main 751 699 __________P___ -1 22.4392 128.882 4 8 274
1893274N10148 1893 54 WP MM NOT_NAMED 1893-10-04 09:00:00 NR 22.4545 128.443 main 699 664 __________P___ -1 22.4545 128.443 4 8 270
1893274N10148 1893 54 WP MM NOT_NAMED 1893-10-04 12:00:00 NR 22.4370 128.033 main 664 626 __________P___ -1 22.4370 128.033 4 7 266
1893274N10148 1893 54 WP MM NOT_NAMED 1893-10-04 15:00:00 NR 22.4083 127.634 main 626 617 __________P___ -1 22.4083 127.634 4 7 266
1893274N10148 1893 54 WP MM NOT_NAMED 1893-10-04 16:00:00 NR 22.4000 127.500 main 617 589 __________O___ -1 22.4000 127.500 4 8 269
1893274N10148 1893 54 WP MM NOT_NAMED 1893-10-04 18:00:00 NR 22.4049 127.222 main 589 551 __________P___ -1 22.4049 127.222 4 8 271
1893274N10148 1893 54 WP MM NOT_NAMED 1893-10-04 21:00:00 NR 22.4126 126.805 main 551 515 __________P___ -1 22.4126 126.805 4 8 271
1893274N10148 1893 54 WP MM NOT_NAMED 1893-10-05 00:00:00 NR 22.4152 126.383 main 515 467 __________P___ -1 22.4152 126.383 4 8 270
1893274N10148 1893 54 WP MM NOT_NAMED 1893-10-05 03:00:00 NR 22.4065 125.948 main 467 457 __________P___ -1 22.4065 125.948 4 8 268
1893274N10148 1893 54 WP MM NOT_NAMED 1893-10-05 04:00:00 NR 22.4000 125.800 main 457 427 __________O___ -1 22.4000 125.800 4 9 267
1893274N10148 1893 54 WP MM NOT_NAMED 1893-10-05 06:00:00 NR 22.3807 125.489 main 427 379 __________P___ -1 22.3807 125.489 4 9 265
1893274N10148 1893 54 WP MM NOT_NAMED 1893-10-05 09:00:00 NR 22.3392 125.011 main 379 330 __________P___ -1 22.3392 125.011 4 9 264
1893274N10148 1893 54 WP MM NOT_NAMED 1893-10-05 12:00:00 NR 22.2854 124.528 main 330 294 __________P___ -1 22.2854 124.528 4 9 262
1893274N10148 1893 54 WP MM NOT_NAMED 1893-10-05 15:00:00 NR 22.2224 124.054 main 294 275 __________P___ -1 22.2224 124.054 4 9 262
1893274N10148 1893 54 WP MM NOT_NAMED 1893-10-05 16:00:00 NR 22.2000 123.900 main 275 247 __________O___ -1 22.2000 123.900 4 8 261
1893274N10148 1893 54 WP MM NOT_NAMED 1893-10-05 18:00:00 NR 22.1551 123.618 main 247 215 __________P___ -1 22.1551 123.618 4 8 260
1893274N10148 1893 54 WP MM NOT_NAMED 1893-10-05 21:00:00 NR 22.0817 123.209 main 215 189 __________P___ -1 22.0817 123.209 4 8 259
1893274N10148 1893 54 WP MM NOT_NAMED 1893-10-06 00:00:00 NR 22.0042 122.795 main 189 154 __________P___ -1 22.0042 122.795 4 8 259
1893274N10148 1893 54 WP MM NOT_NAMED 1893-10-06 03:00:00 NR 21.9258 122.356 main 154 134 __________P___ -1 21.9258 122.356 4 8 259
1893274N10148 1893 54 WP MM NOT_NAMED 1893-10-06 04:00:00 NR 21.9000 122.200 main 134 103 __________O___ -1 21.9000 122.200 4 9 260
1893274N10148 1893 54 WP MM NOT_NAMED 1893-10-06 06:00:00 NR 21.8476 121.854 main 103 42 __________P___ -1 21.8476 121.854 4 10 261
1893274N10148 1893 54 WP MM NOT_NAMED 1893-10-06 09:00:00 NR 21.7688 121.303 main 42 22 __________P___ -1 21.7688 121.303 4 10 261
1893274N10148 1893 54 WP MM NOT_NAMED 1893-10-06 12:00:00 NR 21.6924 120.737 main 22 22 __________P___ -1 21.6924 120.737 4 11 262
1893274N10148 1893 54 WP MM NOT_NAMED 1893-10-06 15:00:00 NR 21.6217 120.179 main 61 70 __________P___ -1 21.6217 120.179 4 10 262
1893274N10148 1893 54 WP MM NOT_NAMED 1893-10-06 16:00:00 NR 21.6000 120.000 main 79 79 __________O___ -1 21.6000 120.000 4 9 263
1893274N10148 1893 54 WP MM NOT_NAMED 1893-10-06 18:00:00 NR 21.5626 119.685 main 108 108 __________P___ -1 21.5626 119.685 4 9 263
1893274N10148 1893 54 WP MM NOT_NAMED 1893-10-06 21:00:00 NR 21.5135 119.231 main 159 159 __________P___ -1 21.5135 119.231 4 9 264
1893274N10148 1893 54 WP MM NOT_NAMED 1893-10-07 00:00:00 NR 21.4674 118.773 main 190 199 __________P___ -1 21.4674 118.773 4 9 264
1893274N10148 1893 54 WP MM NOT_NAMED 1893-10-07 03:00:00 NR 21.4182 118.278 main 240 235 __________P___ -1 21.4182 118.278 4 9 264
1893274N10148 1893 54 WP MM NOT_NAMED 1893-10-07 04:00:00 NR 21.4000 118.100 main 235 208 __________O___ -1 21.4000 118.100 4 11 263
1893274N10148 1893 54 WP MM NOT_NAMED 1893-10-07 06:00:00 NR 21.3532 117.704 main 208 189 __________P___ -1 21.3532 117.704 4 12 263
1893274N10148 1893 54 WP MM NOT_NAMED 1893-10-07 09:00:00 NR 21.2766 117.065 main 189 178 __________P___ -1 21.2766 117.065 4 12 263
1893274N10148 1893 54 WP MM NOT_NAMED 1893-10-07 12:00:00 NR 21.1977 116.396 main 178 168 __________P___ -1 21.1977 116.396 4 13 263
1893274N10148 1893 54 WP MM NOT_NAMED 1893-10-07 15:00:00 NR 21.1229 115.722 main 176 168 __________P___ -1 21.1229 115.722 4 13 263
1893274N10148 1893 54 WP MM NOT_NAMED 1893-10-07 16:00:00 NR 21.1000 115.500 main 168 157 __________O___ -1 21.1000 115.500 4 13 263
1893274N10148 1893 54 WP MM NOT_NAMED 1893-10-07 18:00:00 NR 21.0452 115.051 main 167 145 __________P___ -1 21.0452 115.051 4 13 263
1893274N10148 1893 54 WP MM NOT_NAMED 1893-10-07 21:00:00 NR 20.9693 114.384 main 145 133 __________P___ -1 20.9693 114.384 4 12 264
1893274N10148 1893 54 WP MM NOT_NAMED 1893-10-08 00:00:00 NR 20.9142 113.748 main 133 113 __________P___ -1 20.9142 113.748 4 11 266
1893274N10148 1893 54 WP MM NOT_NAMED 1893-10-08 03:00:00 NR 20.8954 113.173 main 113 108 __________P___ -1 20.8954 113.173 4 10 269
1893274N10148 1893 54 WP MM NOT_NAMED 1893-10-08 04:00:00 NR 20.9000 113.000 main 108 98 __________O___ -1 20.9000 113.000 4 9 273
1893274N10148 1893 54 WP MM NOT_NAMED 1893-10-08 06:00:00 NR 20.9211 112.683 main 98 78 __________P___ -1 20.9211 112.683 4 8 278
1893274N10148 1893 54 WP MM NOT_NAMED 1893-10-08 09:00:00 NR 20.9912 112.269 main 78 54 __________P___ -1 20.9912 112.269 4 7 284
1893274N10148 1893 54 WP MM NOT_NAMED 1893-10-08 12:00:00 NR 21.1015 111.914 main 54 33 __________P___ -1 21.1015 111.914 4 7 292
1893274N10148 1893 54 WP MM NOT_NAMED 1893-10-08 15:00:00 NR 21.2456 111.599 main 33 22 __________P___ -1 21.2456 111.599 4 7 297
1893274N10148 1893 54 WP MM NOT_NAMED 1893-10-08 16:00:00 NR 21.3000 111.500 main 22 0 __________O___ -1 21.3000 111.500 4 6 302
1893274N10148 1893 54 WP MM NOT_NAMED 1893-10-08 18:00:00 NR 21.4167 111.307 main 0 0 __________P___ -1 21.4167 111.307 4 6 305
1893274N10148 1893 54 WP MM NOT_NAMED 1893-10-08 21:00:00 NR 21.6083 111.027 main 0 0 __________P___ -1 21.6083 111.027 4 7 308
1893274N10148 1893 54 WP MM NOT_NAMED 1893-10-09 00:00:00 NR 21.8142 110.755 main 0 0 __________P___ -1 21.8142 110.755 4 7 310
1893274N10148 1893 54 WP MM NOT_NAMED 1893-10-09 03:00:00 NR 22.0280 110.489 main 0 0 __________P___ -1 22.0280 110.489 4 7 311
1893274N10148 1893 54 WP MM NOT_NAMED 1893-10-09 04:00:00 NR 22.1000 110.400 main 0 __________O___ -1 22.1000 110.400 7 7 313

Digital Typhoon Data and Search

About IBTrACS Database

This database is a web-friendly format of International Best Track Archive for Climate Stewardship (IBTrACS), a global best track data archive curated by NOAA dating back to 1842.

Updated: 2021-10-21